createdAt,value
2022-08-16T00:01:33.988Z,99090.97
2022-08-16T00:04:01.985Z,99087.09
2022-08-16T00:06:33.410Z,99097.25
2022-08-16T00:09:02.272Z,99085.69
2022-08-16T00:11:29.826Z,99084.84
2022-08-16T00:13:57.486Z,99087.00
2022-08-16T00:17:01.068Z,99081.09
2022-08-16T00:19:14.021Z,99088.25
2022-08-16T00:21:42.348Z,99084.03
2022-08-16T00:24:12.695Z,99087.25
2022-08-16T00:26:43.938Z,99092.94
2022-08-16T00:29:13.421Z,99093.84
2022-08-16T00:31:59.435Z,99083.50
2022-08-16T00:34:44.726Z,99085.84
2022-08-16T00:37:20.227Z,99093.59
2022-08-16T00:39:58.278Z,99091.38
2022-08-16T00:42:30.595Z,99089.41
2022-08-16T00:45:06.448Z,99080.19
2022-08-16T00:47:38.269Z,99083.47
2022-08-16T00:50:11.356Z,99085.25
2022-08-16T00:52:45.981Z,99093.97
2022-08-16T00:55:21.901Z,99090.19
2022-08-16T00:58:00.200Z,99093.50
2022-08-16T01:00:30.028Z,99095.06
2022-08-16T01:02:59.629Z,99094.19
2022-08-16T01:05:27.480Z,99099.66
2022-08-16T01:07:57.326Z,99096.00
2022-08-16T01:10:32.549Z,99095.47
2022-08-16T01:13:01.931Z,99099.59
2022-08-16T01:15:32.883Z,99103.97
2022-08-16T01:18:01.365Z,99105.63
2022-08-16T01:20:32.834Z,99105.56
2022-08-16T01:23:08.451Z,99108.63
2022-08-16T01:25:40.365Z,99109.59
2022-08-16T01:28:09.219Z,99101.22
2022-08-16T01:30:39.870Z,99107.28
2022-08-16T01:33:19.229Z,99108.13
2022-08-16T01:35:52.516Z,99105.72
2022-08-16T01:38:25.976Z,99105.19
2022-08-16T01:41:01.794Z,99112.16
2022-08-16T01:43:31.453Z,99102.91
2022-08-16T01:46:29.779Z,99104.03
2022-08-16T01:48:49.438Z,99099.94
2022-08-16T01:51:18.058Z,99112.88
2022-08-16T01:53:54.674Z,99108.50
2022-08-16T01:56:30.312Z,99116.88
2022-08-16T01:59:04.596Z,99109.31
2022-08-16T02:01:34.559Z,99108.50
2022-08-16T02:04:06.190Z,99111.47
2022-08-16T02:06:40.278Z,99110.50
2022-08-16T02:09:17.832Z,99105.44
2022-08-16T02:11:53.165Z,99104.38
2022-08-16T02:14:26.496Z,99107.59
2022-08-16T02:16:57.380Z,99112.31
2022-08-16T02:19:58.510Z,99115.69
2022-08-16T02:22:33.667Z,99112.50
2022-08-16T02:25:04.906Z,99105.63
2022-08-16T02:27:34.891Z,99105.06
2022-08-16T02:30:07.585Z,99102.66
2022-08-16T02:32:49.878Z,99105.69
2022-08-16T02:35:23.239Z,99100.50
2022-08-16T02:37:52.854Z,99099.34
2022-08-16T02:40:23.781Z,99103.34
2022-08-16T02:42:56.359Z,99101.16
2022-08-16T02:45:28.012Z,99096.94
2022-08-16T02:48:01.029Z,99096.94
2022-08-16T02:50:53.873Z,99101.56
2022-08-16T02:53:30.853Z,99102.66
2022-08-16T02:55:59.177Z,99103.13
2022-08-16T02:58:33.671Z,99099.63
2022-08-16T03:01:02.012Z,99105.78
2022-08-16T03:04:29.144Z,99103.63
2022-08-16T03:06:41.565Z,99103.56
2022-08-16T03:09:16.376Z,99100.69
2022-08-16T03:11:48.762Z,99102.31
2022-08-16T03:14:21.296Z,99100.13
2022-08-16T03:16:59.964Z,99098.22
2022-08-16T03:19:48.217Z,99102.91
2022-08-16T03:22:27.958Z,99091.66
2022-08-16T03:25:01.187Z,99099.16
2022-08-16T03:27:32.274Z,99091.94
2022-08-16T03:30:16.179Z,99094.59
2022-08-16T03:32:51.579Z,99094.56
2022-08-16T03:35:21.254Z,99100.75
2022-08-16T03:38:02.462Z,99099.34
2022-08-16T03:40:36.422Z,99093.31
2022-08-16T03:43:20.715Z,99097.47
2022-08-16T03:45:53.755Z,99097.41
2022-08-16T03:48:39.792Z,99103.81
2022-08-16T03:51:14.071Z,99113.16
2022-08-16T03:54:00.701Z,99108.59
2022-08-16T03:56:30.505Z,99109.59
2022-08-16T03:58:58.974Z,99111.31
2022-08-16T04:01:32.105Z,99113.19
2022-08-16T04:04:01.530Z,99114.00
2022-08-16T04:06:30.295Z,99112.13
2022-08-16T04:08:57.925Z,99109.69
2022-08-16T04:11:25.501Z,99119.25
2022-08-16T04:14:00.236Z,99111.88
2022-08-16T04:16:42.408Z,99113.78
2022-08-16T04:19:31.601Z,99116.16
2022-08-16T04:22:00.661Z,99119.72
2022-08-16T04:24:31.543Z,99119.25
2022-08-16T04:26:59.737Z,99122.59
2022-08-16T04:29:27.816Z,99123.00
2022-08-16T04:32:13.751Z,99130.50
2022-08-16T04:34:43.373Z,99128.13
2022-08-16T04:37:12.501Z,99132.94
2022-08-16T04:39:47.175Z,99141.38
2022-08-16T04:42:26.535Z,99139.03
2022-08-16T04:44:58.277Z,99148.44
2022-08-16T04:47:35.585Z,99147.59
2022-08-16T04:50:10.348Z,99155.13
2022-08-16T04:52:38.916Z,99160.75
2022-08-16T04:55:09.889Z,99158.97
2022-08-16T04:57:41.220Z,99156.13
2022-08-16T05:00:30.495Z,99159.75
2022-08-16T05:03:09.473Z,99163.06
2022-08-16T05:05:59.007Z,99163.31
2022-08-16T05:08:33.000Z,99161.69
2022-08-16T05:11:13.370Z,99160.28
2022-08-16T05:13:43.031Z,99172.28
2022-08-16T05:16:21.568Z,99168.91
2022-08-16T05:18:58.431Z,99172.06
2022-08-16T05:21:38.024Z,99168.94
2022-08-16T05:24:09.650Z,99176.34
2022-08-16T05:26:40.991Z,99177.97
2022-08-16T05:29:15.279Z,99187.19
2022-08-16T05:31:53.175Z,99178.31
2022-08-16T05:34:22.757Z,99184.09
2022-08-16T05:36:57.220Z,99186.28
2022-08-16T05:39:29.391Z,99187.84
2022-08-16T05:42:01.146Z,99186.41
2022-08-16T05:44:29.109Z,99182.22
2022-08-16T05:47:00.805Z,99170.50
2022-08-16T05:49:39.277Z,99177.59
2022-08-16T05:52:11.555Z,99173.84
2022-08-16T05:54:46.577Z,99178.38
2022-08-16T05:57:15.214Z,99184.94
2022-08-16T05:59:42.930Z,99191.28
2022-08-16T06:02:10.829Z,99192.09
2022-08-16T06:04:44.992Z,99190.22
2022-08-16T06:07:24.680Z,99188.00
2022-08-16T06:10:05.115Z,99201.31
2022-08-16T06:12:35.545Z,99195.16
2022-08-16T06:15:10.178Z,99194.88
2022-08-16T06:17:42.610Z,99197.69
2022-08-16T06:20:18.591Z,99202.78
2022-08-16T06:22:58.740Z,99204.44
2022-08-16T06:25:39.740Z,99208.59
2022-08-16T06:28:17.125Z,99210.00
2022-08-16T06:30:58.548Z,99205.69
2022-08-16T06:33:26.203Z,99204.84
2022-08-16T06:35:59.574Z,99203.25
2022-08-16T06:38:33.739Z,99200.97
2022-08-16T06:41:13.608Z,99202.13
2022-08-16T06:43:42.359Z,99204.88
2022-08-16T06:46:32.057Z,99209.84
2022-08-16T06:49:05.232Z,99202.94
2022-08-16T06:51:46.089Z,99200.34
2022-08-16T06:54:18.901Z,99200.28
2022-08-16T06:56:46.602Z,99203.25
2022-08-16T06:59:15.613Z,99200.91
2022-08-16T07:01:53.422Z,99199.47
2022-08-16T07:04:32.473Z,99201.31
2022-08-16T07:07:09.892Z,99206.88
2022-08-16T07:09:38.507Z,99205.00
2022-08-16T07:12:07.050Z,99209.34
2022-08-16T07:14:38.939Z,99209.50
2022-08-16T07:17:08.150Z,99211.69
2022-08-16T07:20:02.801Z,99222.34
2022-08-16T07:22:52.887Z,99219.22
2022-08-16T07:25:28.203Z,99223.44
2022-08-16T07:27:55.886Z,99238.06
2022-08-16T07:30:45.663Z,99236.34
2022-08-16T07:33:51.899Z,99241.56
2022-08-16T07:36:23.173Z,99231.13
2022-08-16T07:38:53.827Z,99229.78
2022-08-16T07:41:23.039Z,99230.91
2022-08-16T07:43:57.844Z,99246.00
2022-08-16T07:46:38.470Z,99247.78
2022-08-16T07:49:15.568Z,99236.28
2022-08-16T07:51:46.724Z,99245.47
2022-08-16T07:54:21.344Z,99255.03
2022-08-16T07:57:07.836Z,99255.38
2022-08-16T07:59:46.295Z,99259.00
2022-08-16T08:02:20.128Z,99265.97
2022-08-16T08:04:53.776Z,99270.63
2022-08-16T08:07:21.633Z,99268.19
2022-08-16T08:09:53.313Z,99268.75
2022-08-16T08:12:32.171Z,99271.31
2022-08-16T08:15:05.830Z,99266.53
2022-08-16T08:17:42.517Z,99271.63
2022-08-16T08:20:20.846Z,99277.16
2022-08-16T08:22:59.949Z,99276.75
2022-08-16T08:25:54.917Z,99280.28
2022-08-16T08:28:19.868Z,99283.00
2022-08-16T08:31:01.048Z,99271.38
2022-08-16T08:33:32.303Z,99269.88
2022-08-16T08:36:04.890Z,99282.00
2022-08-16T08:38:44.119Z,99276.66
2022-08-16T08:41:15.279Z,99279.44
2022-08-16T08:43:46.671Z,99282.72
2022-08-16T08:46:18.191Z,99285.25
2022-08-16T08:48:59.869Z,99288.19
2022-08-16T08:51:37.188Z,99289.28
2022-08-16T08:54:09.763Z,99294.59
2022-08-16T08:56:45.510Z,99289.75
2022-08-16T08:59:28.654Z,99296.09
2022-08-16T09:01:58.613Z,99300.44
2022-08-16T09:04:31.438Z,99299.63
2022-08-16T09:07:01.332Z,99301.78
2022-08-16T09:09:33.516Z,99303.19
2022-08-16T09:12:06.986Z,99300.91
2022-08-16T09:14:50.939Z,99290.06
2022-08-16T09:17:45.478Z,99295.94
2022-08-16T09:20:14.382Z,99294.16
2022-08-16T09:22:51.330Z,99295.16
2022-08-16T09:25:26.228Z,99294.13
2022-08-16T09:27:58.008Z,99303.06
2022-08-16T09:30:43.251Z,99291.59
2022-08-16T09:33:14.454Z,99298.03
2022-08-16T09:35:42.817Z,99298.34
2022-08-16T09:38:12.167Z,99297.09
2022-08-16T09:40:42.614Z,99300.78
2022-08-16T09:43:46.468Z,99285.09
2022-08-16T09:46:02.659Z,99304.03
2022-08-16T09:48:44.182Z,99292.53
2022-08-16T09:51:18.281Z,99294.66
2022-08-16T09:53:53.978Z,99293.66
2022-08-16T09:56:27.557Z,99302.53
2022-08-16T09:59:03.790Z,99299.59
2022-08-16T10:01:33.584Z,99293.88
2022-08-16T10:04:04.076Z,99296.78
2022-08-16T10:06:33.499Z,99299.16
2022-08-16T10:09:05.347Z,99285.00
2022-08-16T10:11:51.738Z,99286.72
2022-08-16T10:14:24.463Z,99283.34
2022-08-16T10:16:59.764Z,99281.56
2022-08-16T10:19:29.833Z,99285.81
2022-08-16T10:22:05.048Z,99292.63
2022-08-16T10:24:32.969Z,99299.41
2022-08-16T10:27:18.803Z,99295.22
2022-08-16T10:30:01.189Z,99296.41
2022-08-16T10:32:35.267Z,99290.34
2022-08-16T10:35:03.673Z,99296.34
2022-08-16T10:37:32.499Z,99300.69
2022-08-16T10:40:06.151Z,99288.19
2022-08-16T10:42:53.733Z,99293.94
2022-08-16T10:45:23.027Z,99292.06
2022-08-16T10:48:00.543Z,99290.16
2022-08-16T10:50:32.276Z,99300.41
2022-08-16T10:52:59.890Z,99294.59
2022-08-16T10:55:46.098Z,99295.53
2022-08-16T10:58:17.131Z,99299.91
2022-08-16T11:00:47.162Z,99298.13
2022-08-16T11:06:06.410Z,99299.91
2022-08-16T11:08:39.630Z,99292.72
2022-08-16T11:11:18.514Z,99295.53
2022-08-16T11:14:11.059Z,99290.34
2022-08-16T11:19:28.336Z,99301.28
2022-08-16T11:22:38.560Z,99300.47
2022-08-16T11:24:46.093Z,99304.34
2022-08-16T11:27:36.038Z,99300.22
2022-08-16T11:30:19.846Z,99310.44
2022-08-16T11:32:49.414Z,99310.44
2022-08-16T11:35:19.030Z,99306.00
2022-08-16T11:38:46.978Z,99307.09
2022-08-16T11:41:00.171Z,99306.66
2022-08-16T11:43:30.057Z,99310.06
2022-08-16T11:46:01.479Z,99307.69
2022-08-16T11:48:49.977Z,99297.88
2022-08-16T11:51:17.543Z,99299.97
2022-08-16T11:53:45.741Z,99302.38
2022-08-16T11:56:14.919Z,99301.53
2022-08-16T11:58:42.645Z,99307.22
2022-08-16T12:01:29.946Z,99313.06
2022-08-16T12:04:11.076Z,99314.59
2022-08-16T12:06:41.407Z,99298.34
2022-08-16T12:09:10.125Z,99313.09
2022-08-16T12:11:40.363Z,99305.28
2022-08-16T12:14:11.396Z,99317.44
2022-08-16T12:16:38.989Z,99314.06
2022-08-16T12:19:17.794Z,99319.13
2022-08-16T12:21:58.859Z,99305.16
2022-08-16T12:24:28.134Z,99304.56
2022-08-16T12:26:55.938Z,99312.34
2022-08-16T12:29:25.859Z,99307.66
2022-08-16T14:12:55.860Z,99285.28
2022-08-16T14:15:23.575Z,99289.84
2022-08-16T14:18:17.124Z,99283.16
2022-08-16T14:20:39.357Z,99283.28
2022-08-16T14:23:24.465Z,99279.34
2022-08-16T14:25:53.906Z,99278.22
2022-08-16T14:28:25.822Z,99285.41
2022-08-16T14:30:54.270Z,99280.56
2022-08-16T14:33:22.312Z,99280.25
2022-08-16T14:35:50.842Z,99276.16
2022-08-16T14:38:23.504Z,99284.91
2022-08-16T14:40:55.155Z,99292.84
2022-08-16T14:43:24.841Z,99287.28
2022-08-16T14:45:54.887Z,99276.72
2022-08-16T14:48:26.052Z,99279.63
2022-08-16T14:50:54.676Z,99285.44
2022-08-16T14:53:23.796Z,99280.44
2022-08-16T14:55:51.391Z,99283.56
2022-08-16T14:58:20.250Z,99285.78
2022-08-16T15:01:04.553Z,99286.69
2022-08-16T15:03:32.931Z,99291.13
2022-08-16T15:06:01.823Z,99290.97
2022-08-16T15:08:36.231Z,99293.09
2022-08-16T15:11:05.966Z,99286.41
2022-08-16T15:13:42.914Z,99294.38
2022-08-16T15:16:14.278Z,99283.75
2022-08-16T15:18:41.905Z,99275.69
2022-08-16T15:21:14.334Z,99278.78
2022-08-16T15:23:42.015Z,99281.88
2022-08-16T15:26:10.993Z,99281.53
2022-08-16T15:28:46.415Z,99287.56
2022-08-16T15:31:16.092Z,99284.34
2022-08-16T15:33:55.093Z,99278.56
2022-08-16T15:36:25.934Z,99279.25
2022-08-16T15:39:05.793Z,99281.00
2022-08-16T15:42:07.105Z,99282.13
2022-08-16T15:44:51.297Z,99277.25
2022-08-16T15:47:26.241Z,99283.78
2022-08-16T15:49:55.564Z,99289.44
2022-08-16T15:52:29.448Z,99283.16
2022-08-16T15:55:13.279Z,99287.59
2022-08-16T15:57:53.993Z,99281.47
2022-08-16T16:00:26.713Z,99286.22
2022-08-16T16:03:08.496Z,99284.91
2022-08-16T16:05:37.289Z,99279.72
2022-08-16T16:08:10.850Z,99281.63
2022-08-16T16:10:43.247Z,99283.34
2022-08-16T16:13:15.421Z,99282.00
2022-08-16T16:15:45.711Z,99285.59
2022-08-16T16:18:15.799Z,99282.59
2022-08-16T16:20:47.335Z,99281.22
2022-08-16T16:23:23.445Z,99281.09
2022-08-16T16:25:51.571Z,99276.00
2022-08-16T16:28:51.397Z,99291.69
2022-08-16T16:31:12.311Z,99288.00
2022-08-16T16:33:44.323Z,99296.22
2022-08-16T16:36:15.048Z,99287.81
2022-08-16T16:38:45.510Z,99299.88
2022-08-16T16:41:13.742Z,99297.78
2022-08-16T16:43:44.395Z,99297.50
2022-08-16T16:46:40.651Z,99297.06
2022-08-16T16:49:08.508Z,99289.13
2022-08-16T16:51:40.367Z,99298.59
2022-08-16T16:54:12.862Z,99294.16
2022-08-16T16:56:49.857Z,99309.28
2022-08-16T16:59:28.034Z,99301.88
2022-08-16T17:02:01.464Z,99301.56
2022-08-16T17:04:48.017Z,99294.09
2022-08-16T17:07:16.359Z,99297.31
2022-08-16T17:09:45.568Z,99304.75
2022-08-16T17:12:25.445Z,99307.84
2022-08-16T17:15:01.221Z,99310.84
2022-08-16T17:17:58.976Z,99305.97
2022-08-16T17:20:22.510Z,99320.50
2022-08-16T17:22:54.715Z,99320.13
2022-08-16T17:25:24.094Z,99316.22
2022-08-16T17:27:54.558Z,99310.56
2022-08-16T17:33:20.811Z,99326.69
2022-08-16T17:35:55.339Z,99329.41
2022-08-16T17:38:38.811Z,99331.25
2022-08-16T17:39:28.531Z,99311.69
2022-08-16T17:41:12.654Z,99324.50
2022-08-16T17:43:44.407Z,99318.81
2022-08-16T17:46:41.375Z,99338.31
2022-08-16T17:49:03.863Z,99331.97
2022-08-16T17:51:36.216Z,99332.44
2022-08-16T17:54:04.441Z,99325.41
2022-08-16T17:56:32.461Z,99342.22
2022-08-16T17:59:01.108Z,99334.56
2022-08-16T18:01:29.420Z,99340.88
2022-08-16T18:04:06.638Z,99346.06
2022-08-16T18:06:38.462Z,99353.38
2022-08-16T18:09:06.965Z,99353.03
2022-08-16T18:12:44.876Z,99348.09
2022-08-16T18:16:33.555Z,99357.13
2022-08-16T18:20:14.739Z,99354.19
2022-08-16T18:23:56.622Z,99360.31
2022-08-16T18:27:38.220Z,99368.59
2022-08-16T18:31:19.677Z,99365.03
2022-08-16T18:35:03.331Z,99372.41
2022-08-16T18:38:44.765Z,99376.47
2022-08-16T18:42:26.641Z,99374.91
2022-08-16T18:46:07.910Z,99376.59
2022-08-16T18:49:49.441Z,99374.25
2022-08-16T18:53:30.682Z,99387.06
2022-08-16T18:57:12.395Z,99390.34
2022-08-16T19:00:56.453Z,99397.47
2022-08-16T19:04:56.876Z,99396.13
2022-08-16T19:08:39.978Z,99410.22
2022-08-16T19:12:37.970Z,99409.41
2022-08-16T19:16:23.758Z,99414.53
2022-08-16T19:20:10.392Z,99415.03
2022-08-16T19:23:52.820Z,99418.56
2022-08-16T19:27:33.999Z,99420.38
2022-08-16T19:31:17.303Z,99418.78
2022-08-16T19:34:58.792Z,99426.38
2022-08-16T19:38:40.285Z,99424.81
2022-08-16T19:42:23.486Z,99439.44
2022-08-16T19:46:05.343Z,99441.63
2022-08-16T19:49:46.821Z,99444.63
2022-08-16T19:53:28.161Z,99448.97
2022-08-16T19:57:09.996Z,99444.09
2022-08-16T20:00:52.371Z,99458.25
2022-08-16T20:04:37.615Z,99442.78
2022-08-16T20:08:18.787Z,99439.50
2022-08-16T20:11:18.676Z,99441.91
2022-08-16T20:13:46.180Z,99443.56
2022-08-16T20:16:14.462Z,99447.81
2022-08-16T20:18:42.235Z,99450.78
2022-08-16T20:21:09.827Z,99450.66
2022-08-16T20:23:37.333Z,99465.84
2022-08-16T20:26:04.826Z,99458.44
2022-08-16T20:28:52.075Z,99461.38
2022-08-16T20:31:21.285Z,99457.00
2022-08-16T20:33:48.933Z,99464.47
2022-08-16T20:36:16.866Z,99460.00
2022-08-16T20:38:46.652Z,99462.69
2022-08-16T20:41:14.371Z,99467.56
2022-08-16T20:43:43.365Z,99469.09
2022-08-16T20:46:10.994Z,99469.66
2022-08-16T20:48:38.501Z,99477.00
2022-08-16T20:51:10.347Z,99476.09
2022-08-16T20:53:38.241Z,99470.63
2022-08-16T20:56:06.734Z,99483.28
2022-08-16T20:58:34.591Z,99477.28
2022-08-16T21:01:04.178Z,99485.72
2022-08-16T21:03:31.921Z,99487.03
2022-08-16T21:06:01.900Z,99486.72
2022-08-16T21:08:51.952Z,99484.13
2022-08-16T21:11:17.833Z,99485.59
2022-08-16T21:13:45.399Z,99485.25
2022-08-16T21:16:16.348Z,99486.03
2022-08-16T21:18:43.958Z,99489.16
2022-08-16T21:21:14.149Z,99492.56
2022-08-16T21:23:41.770Z,99494.47
2022-08-16T21:26:11.150Z,99496.00
2022-08-16T21:28:42.754Z,99502.41
2022-08-16T21:31:11.489Z,99502.19
2022-08-16T21:33:40.728Z,99500.88
2022-08-16T21:36:09.098Z,99488.47
2022-08-16T21:38:36.750Z,99497.53
2022-08-16T21:41:08.121Z,99496.81
2022-08-16T21:43:35.847Z,99495.31
2022-08-16T21:46:05.922Z,99492.56
2022-08-16T21:48:36.007Z,99496.31
2022-08-16T21:51:06.070Z,99497.00
2022-08-16T21:53:33.977Z,99503.53
2022-08-16T21:56:01.901Z,99504.34
2022-08-16T21:58:29.934Z,99508.75
2022-08-16T22:00:57.808Z,99502.22
2022-08-16T22:03:25.377Z,99512.78
2022-08-16T22:06:13.590Z,99507.53
2022-08-16T22:08:49.306Z,99510.00
2022-08-16T22:11:19.261Z,99502.34
2022-08-16T22:13:57.674Z,99506.75
2022-08-16T22:16:27.587Z,99512.06
2022-08-16T22:18:55.231Z,99515.50
2022-08-16T22:21:22.813Z,99521.22
2022-08-16T22:23:56.885Z,99513.94
2022-08-16T22:26:31.046Z,99514.69
2022-08-16T22:29:00.410Z,99512.13
2022-08-16T22:31:28.026Z,99516.72
2022-08-16T22:33:56.462Z,99518.28
2022-08-16T22:36:24.394Z,99527.69
2022-08-16T22:38:58.741Z,99519.22
2022-08-16T22:41:27.589Z,99518.31
2022-08-16T22:43:55.523Z,99515.94
2022-08-16T22:46:23.149Z,99518.06
2022-08-16T22:48:51.017Z,99512.91
2022-08-16T22:51:18.746Z,99516.59
2022-08-16T22:53:46.598Z,99504.06
2022-08-16T22:56:15.884Z,99510.28
2022-08-16T22:58:43.690Z,99514.84
2022-08-16T23:01:12.013Z,99517.59
2022-08-16T23:03:40.155Z,99514.69
2022-08-16T23:06:08.626Z,99512.88
2022-08-16T23:08:40.963Z,99515.13
2022-08-16T23:11:10.933Z,99508.34
2022-08-16T23:13:52.804Z,99503.97
2022-08-16T23:16:29.202Z,99504.53
2022-08-16T23:19:02.078Z,99509.66
2022-08-16T23:21:30.018Z,99507.53
2022-08-16T23:23:57.571Z,99503.09
2022-08-16T23:26:36.555Z,99510.50
2022-08-16T23:29:22.557Z,99506.63
2022-08-16T23:31:54.521Z,99504.53
2022-08-16T23:34:22.351Z,99502.09
2022-08-16T23:36:52.727Z,99504.44
2022-08-16T23:39:20.282Z,99505.59
2022-08-16T23:41:47.897Z,99506.56
2022-08-16T23:44:57.832Z,99502.69
2022-08-16T23:47:05.183Z,99503.72
2022-08-16T23:49:57.018Z,99501.66
2022-08-16T23:52:53.944Z,99497.09
2022-08-16T23:55:08.770Z,99492.63
2022-08-16T23:57:36.354Z,99491.72
